Time;durP1;ratioP1;P1;durP2;ratioP2;P2;SDS_P1;SDS_P2;PMS_P1;PMS_P2;Temp;Humidity;BMP_temperature;BMP_pressure;BME280_temperature;BME280_humidity;BME280_pressure;Samples;Min_cycle;Max_cycle;Signal;HPM_P1;HPM_P2
2023/10/15 00:04:22;;;;;;;3.05;1.42;;;18.20;74.20;;;;;;10414125;28;20690;-58
2023/10/15 00:09:23;;;;;;;6.30;2.17;;;18.20;74.20;;;;;;10412210;28;20026;-58
2023/10/15 00:14:24;;;;;;;3.47;1.80;;;18.20;74.10;;;;;;10413765;28;20026;-58
2023/10/15 00:19:25;;;;;;;3.90;1.90;;;18.20;74.20;;;;;;10474504;28;20056;-58
2023/10/15 00:24:26;;;;;;;3.10;1.33;;;18.20;74.10;;;;;;10495923;28;20050;-58
2023/10/15 00:29:27;;;;;;;3.90;1.58;;;18.20;74.00;;;;;;10495213;28;20025;-58
2023/10/15 00:34:30;;;;;;;4.30;1.90;;;18.20;74.00;;;;;;10495164;28;20028;-58
2023/10/15 00:39:31;;;;;;;3.88;1.92;;;18.10;74.00;;;;;;10506608;28;20110;-58
2023/10/15 00:44:31;;;;;;;3.60;1.30;;;18.10;74.20;;;;;;10494939;28;20505;-58
2023/10/15 00:49:33;;;;;;;3.92;1.60;;;18.10;74.20;;;;;;10463335;28;20052;-58
2023/10/15 00:54:34;;;;;;;4.30;2.00;;;18.10;74.30;;;;;;10499588;28;20086;-58
2023/10/15 00:59:47;;;;;;;2.25;1.30;;;18.10;74.20;;;;;;10483452;28;20388;-58
2023/10/15 01:04:51;;;;;;;2.65;1.27;;;18.10;74.20;;;;;;10477826;28;20029;-58
2023/10/15 01:09:51;;;;;;;4.18;1.60;;;18.10;74.30;;;;;;10498699;28;20058;-58
2023/10/15 01:14:52;;;;;;;4.22;1.30;;;18.10;74.20;;;;;;10494068;28;20035;-58
2023/10/15 01:19:53;;;;;;;6.28;1.27;;;18.10;74.30;;;;;;10493277;28;20045;-58
2023/10/15 01:24:54;;;;;;;2.85;1.08;;;18.00;74.20;;;;;;10475630;28;20112;-58
2023/10/15 01:29:55;;;;;;;2.95;1.40;;;18.00;74.20;;;;;;10491183;28;20086;-57
2023/10/15 01:34:59;;;;;;;3.58;0.95;;;18.00;74.20;;;;;;10493065;28;20390;-58
2023/10/15 01:50:23;;;;;;;2.05;1.02;;;18.00;74.10;;;;;;10492061;28;20029;-58
2023/10/15 01:55:28;;;;;;;2.65;1.70;;;18.00;74.10;;;;;;10474225;28;20060;-58
2023/10/15 02:05:44;;;;;;;2.42;0.82;;;18.00;74.20;;;;;;10492301;28;20492;-58
2023/10/15 02:10:48;;;;;;;1.85;0.90;;;18.00;74.10;;;;;;10495755;28;20028;-58
2023/10/15 02:15:49;;;;;;;1.98;0.88;;;17.90;74.10;;;;;;10491561;28;20039;-58
2023/10/15 02:25:58;;;;;;;2.70;1.10;;;17.90;74.10;;;;;;10480899;28;20460;-58
2023/10/15 02:31:22;;;;;;;1.63;0.88;;;17.90;74.10;;;;;;10471875;28;20032;-57
2023/10/15 02:36:24;;;;;;;2.03;0.80;;;17.90;74.10;;;;;;10479500;28;20392;-58
2023/10/15 02:41:40;;;;;;;2.92;1.13;;;17.90;74.10;;;;;;10502797;28;20041;-58
2023/10/15 02:46:47;;;;;;;3.05;1.20;;;17.90;74.10;;;;;;10460677;28;20071;-58
2023/10/15 02:51:48;;;;;;;1.15;0.70;;;17.90;74.10;;;;;;10474205;28;20025;-57
2023/10/15 02:56:49;;;;;;;1.95;0.73;;;17.90;74.10;;;;;;10494409;28;20089;-58
2023/10/15 03:01:55;;;;;;;1.05;0.73;;;17.90;74.00;;;;;;10461564;28;20496;-58
2023/10/15 03:06:58;;;;;;;1.77;0.80;;;17.90;74.70;;;;;;10490555;28;20090;-58
2023/10/15 03:12:05;;;;;;;1.75;0.82;;;17.90;74.10;;;;;;10495074;28;20037;-58
2023/10/15 03:17:12;;;;;;;2.17;0.73;;;17.90;74.00;;;;;;10490182;28;20499;-57
2023/10/15 03:22:13;;;;;;;1.27;0.70;;;17.80;73.90;;;;;;10489749;28;20028;-58
2023/10/15 03:27:16;;;;;;;1.63;0.70;;;17.90;74.00;;;;;;10490079;28;20032;-57
2023/10/15 03:32:17;;;;;;;1.33;0.93;;;17.80;73.90;;;;;;10490163;28;20021;-58
2023/10/15 03:37:22;;;;;;;1.33;0.80;;;17.80;73.90;;;;;;10499018;28;20505;-57
2023/10/15 03:42:26;;;;;;;1.25;0.70;;;17.80;73.90;;;;;;10515601;28;20036;-58
2023/10/15 03:47:27;;;;;;;1.77;0.82;;;17.80;73.90;;;;;;10495946;28;20037;-57
2023/10/15 03:52:27;;;;;;;1.05;0.65;;;17.80;73.90;;;;;;10501003;28;20028;-58
2023/10/15 03:57:28;;;;;;;1.67;0.85;;;17.80;73.90;;;;;;10496604;28;20697;-57
2023/10/15 04:02:59;;;;;;;0.77;0.50;;;17.80;73.90;;;;;;10485783;28;20464;-58
2023/10/15 04:07:59;;;;;;;1.98;0.82;;;17.80;73.90;;;;;;10496702;28;20033;-59
2023/10/15 04:13:01;;;;;;;1.60;0.55;;;17.80;73.90;;;;;;10499959;28;20659;-58
2023/10/15 04:18:01;;;;;;;1.15;0.50;;;17.70;73.80;;;;;;10496303;28;20064;-58
2023/10/15 04:23:02;;;;;;;1.08;0.55;;;17.70;73.80;;;;;;10495617;28;20097;-58
2023/10/15 04:28:14;;;;;;;0.90;0.60;;;17.70;73.80;;;;;;10495676;28;20224;-58
2023/10/15 04:33:14;;;;;;;0.93;0.45;;;17.70;73.60;;;;;;10483915;28;20032;-58
2023/10/15 04:38:21;;;;;;;1.52;0.65;;;17.70;73.60;;;;;;10491683;28;20387;-57
2023/10/15 04:43:25;;;;;;;1.35;0.57;;;17.70;73.70;;;;;;10475652;28;20033;-57
2023/10/15 04:48:26;;;;;;;1.83;0.75;;;17.70;73.70;;;;;;10494180;28;20036;-58
2023/10/15 04:53:30;;;;;;;0.73;0.40;;;17.70;73.80;;;;;;10499413;28;20028;-58
2023/10/15 04:58:31;;;;;;;0.63;0.57;;;17.70;73.70;;;;;;10485396;28;20029;-58
2023/10/15 05:03:33;;;;;;;1.13;0.60;;;17.70;73.80;;;;;;10487850;28;20028;-56
2023/10/15 05:08:35;;;;;;;1.10;0.50;;;17.70;73.60;;;;;;10493027;28;20056;-57
2023/10/15 05:13:35;;;;;;;3.92;0.50;;;17.60;73.60;;;;;;10493387;28;20548;-58
2023/10/15 05:18:36;;;;;;;1.20;0.55;;;17.70;73.70;;;;;;10487507;28;20049;-57
2023/10/15 05:23:37;;;;;;;1.35;0.95;;;17.70;73.80;;;;;;10492037;28;20091;-58
2023/10/15 05:28:38;;;;;;;1.42;0.50;;;17.80;73.60;;;;;;10492869;28;20164;-57
2023/10/15 05:33:39;;;;;;;2.40;0.60;;;17.80;73.60;;;;;;10492820;28;20025;-57
2023/10/15 05:38:40;;;;;;;1.77;0.50;;;17.80;73.60;;;;;;10493021;28;20081;-57
2023/10/15 05:43:44;;;;;;;5.32;1.08;;;17.70;73.40;;;;;;10492831;28;20083;-57
2023/10/15 05:48:45;;;;;;;5.38;0.77;;;17.70;73.60;;;;;;10492516;28;20040;-59
2023/10/15 05:53:46;;;;;;;5.70;0.82;;;17.80;73.50;;;;;;10470854;28;20062;-57
2023/10/15 05:58:47;;;;;;;7.97;1.67;;;17.90;74.70;;;;;;10489198;28;20484;-59
2023/10/15 06:03:48;;;;;;;5.57;1.13;;;17.90;73.80;;;;;;10490787;28;20172;-59
2023/10/15 06:08:49;;;;;;;2.70;0.73;;;17.90;73.60;;;;;;10491011;28;20073;-58
2023/10/15 06:13:49;;;;;;;8.65;1.20;;;17.90;73.80;;;;;;10491160;28;20443;-57
2023/10/15 06:18:50;;;;;;;7.30;1.33;;;17.90;73.80;;;;;;10491487;28;20097;-59
2023/10/15 06:23:52;;;;;;;19.98;1.85;;;17.90;73.70;;;;;;10473489;28;20037;-58
2023/10/15 06:28:53;;;;;;;9.07;1.45;;;17.80;73.60;;;;;;10490997;28;20032;-58
2023/10/15 06:33:53;;;;;;;6.53;1.40;;;17.80;73.90;;;;;;10491168;28;20025;-58
2023/10/15 06:39:00;;;;;;;8.75;2.00;;;17.80;73.90;;;;;;10490098;28;20043;-59
2023/10/15 06:44:01;;;;;;;11.27;1.65;;;17.70;74.00;;;;;;10490517;28;20468;-58
2023/10/15 06:49:01;;;;;;;22.33;2.42;;;17.70;73.80;;;;;;10490537;28;20047;-59
2023/10/15 06:54:02;;;;;;;11.10;2.45;;;17.70;73.50;;;;;;10489770;28;20476;-58
2023/10/15 06:59:03;;;;;;;11.43;1.88;;;17.80;73.80;;;;;;10479532;28;20492;-58
2023/10/15 07:04:07;;;;;;;11.32;1.65;;;17.70;74.10;;;;;;10490415;28;20352;-57
2023/10/15 07:09:09;;;;;;;6.93;1.70;;;17.70;74.20;;;;;;10493556;28;20036;-58
2023/10/15 07:14:10;;;;;;;10.77;1.92;;;17.70;73.70;;;;;;10495842;28;20431;-57
2023/10/15 07:19:11;;;;;;;20.98;3.20;;;17.70;74.00;;;;;;10429578;28;20057;-57
2023/10/15 07:24:12;;;;;;;15.48;3.47;;;17.70;74.20;;;;;;10403420;28;20469;-57
2023/10/15 07:29:13;;;;;;;9.70;2.17;;;17.70;74.40;;;;;;10411583;28;20037;-57
2023/10/15 07:34:14;;;;;;;17.27;2.28;;;17.80;74.10;;;;;;10398377;28;20018;-57
2023/10/15 07:39:14;;;;;;;6.63;2.08;;;17.70;74.30;;;;;;10402288;28;20037;-57
2023/10/15 07:44:15;;;;;;;23.98;4.25;;;17.80;74.10;;;;;;10413143;28;20056;-57
2023/10/15 07:49:17;;;;;;;9.38;2.40;;;17.70;74.40;;;;;;10412971;28;20031;-57
2023/10/15 07:54:18;;;;;;;24.85;3.20;;;17.70;74.20;;;;;;10413080;28;20025;-59
2023/10/15 07:59:20;;;;;;;16.48;3.22;;;17.70;73.40;;;;;;10412933;28;20029;-58
2023/10/15 08:04:21;;;;;;;8.57;1.90;;;17.70;73.60;;;;;;10413653;28;20405;-57
2023/10/15 08:09:25;;;;;;;9.68;1.85;;;17.70;73.40;;;;;;10413041;28;20106;-58
2023/10/15 08:14:26;;;;;;;17.13;3.33;;;17.60;73.60;;;;;;10412439;28;20029;-57
2023/10/15 08:19:26;;;;;;;8.82;2.22;;;17.60;73.80;;;;;;10473557;28;20052;-57
2023/10/15 08:24:27;;;;;;;10.85;3.03;;;17.60;73.80;;;;;;10494532;28;20024;-57
2023/10/15 08:29:29;;;;;;;8.63;2.60;;;17.60;73.80;;;;;;10494318;28;20052;-57
2023/10/15 08:34:29;;;;;;;7.03;1.65;;;17.60;73.80;;;;;;10494498;28;20025;-57
2023/10/15 08:39:30;;;;;;;8.35;2.00;;;17.60;73.80;;;;;;10494357;28;20480;-56
2023/10/15 08:44:33;;;;;;;8.93;2.17;;;17.60;73.90;;;;;;10475830;28;20439;-57
2023/10/15 08:49:35;;;;;;;11.13;2.60;;;17.60;74.20;;;;;;10476282;28;20029;-57
2023/10/15 08:54:38;;;;;;;14.43;2.88;;;17.60;74.10;;;;;;10475810;28;20070;-57
2023/10/15 08:59:41;;;;;;;8.00;2.75;;;17.60;74.10;;;;;;10475822;28;20103;-57
2023/10/15 09:04:45;;;;;;;8.10;1.85;;;17.60;74.20;;;;;;10492952;28;20025;-57
2023/10/15 09:09:49;;;;;;;7.00;1.45;;;17.60;74.20;;;;;;10493313;28;20483;-57
2023/10/15 09:14:49;;;;;;;12.38;1.60;;;17.60;74.10;;;;;;10492900;28;20021;-57
2023/10/15 09:19:52;;;;;;;7.63;1.38;;;17.60;74.00;;;;;;10492993;28;20063;-57
2023/10/15 09:24:53;;;;;;;6.40;1.52;;;17.60;74.00;;;;;;10491828;28;20046;-57
2023/10/15 09:30:18;;;;;;;5.85;1.20;;;17.60;74.10;;;;;;10492007;28;20494;-57
2023/10/15 09:35:21;;;;;;;4.78;1.33;;;17.60;74.60;;;;;;10491905;28;20025;-57
2023/10/15 09:40:23;;;;;;;7.35;1.50;;;17.60;73.90;;;;;;10473568;28;20094;-57
2023/10/15 09:45:24;;;;;;;6.20;1.00;;;17.60;74.00;;;;;;10491095;28;20033;-57
2023/10/15 09:50:27;;;;;;;6.05;1.58;;;17.60;74.00;;;;;;10491433;28;20036;-57
2023/10/15 09:55:32;;;;;;;5.55;1.20;;;17.60;74.00;;;;;;10472906;28;20056;-57
2023/10/15 10:00:48;;;;;;;4.35;1.48;;;17.60;73.90;;;;;;10490891;28;20043;-58
2023/10/15 10:06:09;;;;;;;4.50;1.10;;;17.60;73.90;;;;;;10490684;28;20264;-57
2023/10/15 10:11:27;;;;;;;2.58;1.08;;;17.60;74.20;;;;;;10475190;28;20066;-58
2023/10/15 10:16:30;;;;;;;5.50;1.40;;;17.60;74.20;;;;;;10472214;28;20059;-56
2023/10/15 10:21:32;;;;;;;3.17;0.85;;;17.60;74.20;;;;;;10472743;28;20032;-57
2023/10/15 10:26:32;;;;;;;2.70;1.15;;;17.60;74.10;;;;;;10472238;28;20026;-57
2023/10/15 10:31:36;;;;;;;1.73;0.77;;;17.60;74.40;;;;;;10489347;28;20032;-57
2023/10/15 10:36:38;;;;;;;4.68;1.50;;;17.70;74.30;;;;;;10489854;28;20123;-57
2023/10/15 10:41:41;;;;;;;2.58;0.75;;;17.70;74.30;;;;;;10471658;28;20033;-58
2023/10/15 10:46:45;;;;;;;4.47;1.10;;;17.70;74.20;;;;;;10477068;28;20025;-57
2023/10/15 10:52:14;;;;;;;4.97;1.33;;;17.80;74.00;;;;;;10473129;28;20491;-57
2023/10/15 10:57:18;;;;;;;4.32;1.05;;;17.90;73.90;;;;;;10486785;28;20368;-57
2023/10/15 11:02:20;;;;;;;4.90;1.25;;;18.00;74.00;;;;;;10473049;28;20036;-56
2023/10/15 11:07:33;;;;;;;7.50;1.60;;;18.10;73.90;;;;;;10483167;28;20032;-56
2023/10/15 11:12:34;;;;;;;8.98;1.65;;;18.10;74.00;;;;;;10469823;28;20017;-57
2023/10/15 11:17:35;;;;;;;12.68;3.58;;;18.10;74.00;;;;;;10487561;28;20442;-57
2023/10/15 11:22:39;;;;;;;23.45;2.55;;;18.20;74.00;;;;;;10490220;28;20104;-57
2023/10/15 11:27:39;;;;;;;23.92;4.38;;;18.20;74.00;;;;;;10489361;28;20357;-58
2023/10/15 11:32:40;;;;;;;19.60;3.00;;;18.20;74.30;;;;;;10483970;28;20028;-57
2023/10/15 11:37:44;;;;;;;23.67;3.42;;;18.20;74.30;;;;;;10489429;28;20077;-59
2023/10/15 11:42:51;;;;;;;12.98;2.40;;;18.20;74.40;;;;;;10488960;28;20039;-57
2023/10/15 11:47:58;;;;;;;15.07;3.88;;;18.20;74.30;;;;;;10468728;28;20538;-57
2023/10/15 11:52:58;;;;;;;15.13;3.25;;;18.20;74.30;;;;;;10472368;28;20028;-57
2023/10/15 11:58:10;;;;;;;24.73;3.50;;;18.20;74.30;;;;;;10490717;28;20065;-57
2023/10/15 12:03:10;;;;;;;21.35;3.65;;;18.20;74.10;;;;;;10491932;28;20466;-57
2023/10/15 12:08:12;;;;;;;11.57;2.58;;;18.20;74.00;;;;;;10496425;28;20024;-58
2023/10/15 12:13:14;;;;;;;15.85;4.35;;;18.20;74.10;;;;;;10496950;28;20363;-58
2023/10/15 12:18:15;;;;;;;10.82;3.05;;;18.20;74.10;;;;;;10478430;28;20051;-58
2023/10/15 12:23:16;;;;;;;14.70;2.70;;;18.20;74.00;;;;;;10496775;28;20034;-57
2023/10/15 12:28:16;;;;;;;6.00;2.10;;;18.20;74.00;;;;;;10495556;28;20571;-57
2023/10/15 12:33:17;;;;;;;18.25;2.95;;;18.20;74.00;;;;;;10495241;28;20373;-57
2023/10/15 12:38:26;;;;;;;12.80;3.33;;;18.20;73.90;;;;;;10496118;28;20345;-57
2023/10/15 12:43:27;;;;;;;7.75;2.33;;;18.20;73.70;;;;;;10478991;28;20043;-57
2023/10/15 12:48:29;;;;;;;13.02;3.10;;;18.30;73.80;;;;;;10494160;28;20044;-57
2023/10/15 12:53:31;;;;;;;9.45;2.53;;;18.30;74.10;;;;;;10494419;28;20523;-57
2023/10/15 12:58:32;;;;;;;9.25;2.58;;;18.20;74.10;;;;;;10494183;28;20042;-57
2023/10/15 13:03:33;;;;;;;7.68;1.85;;;18.20;74.20;;;;;;10494632;28;20042;-57
2023/10/15 13:08:34;;;;;;;8.75;2.55;;;18.20;74.30;;;;;;10493644;28;20033;-57
2023/10/15 13:13:35;;;;;;;6.97;2.17;;;18.20;74.10;;;;;;10494347;28;20021;-57
2023/10/15 13:18:39;;;;;;;8.40;2.00;;;18.10;74.20;;;;;;10493155;28;20052;-58
2023/10/15 13:23:40;;;;;;;10.32;2.00;;;18.10;74.20;;;;;;10494361;28;20052;-58
2023/10/15 13:28:41;;;;;;;8.20;2.85;;;18.10;74.20;;;;;;10493174;28;20032;-57
2023/10/15 13:33:41;;;;;;;8.73;2.47;;;18.00;74.30;;;;;;10493657;28;20029;-57
2023/10/15 13:38:42;;;;;;;9.38;2.15;;;18.00;74.40;;;;;;10493232;28;20036;-57
2023/10/15 13:43:44;;;;;;;11.98;1.52;;;18.00;74.30;;;;;;10492965;28;20039;-57
2023/10/15 13:48:44;;;;;;;9.60;1.77;;;18.00;74.20;;;;;;10492429;28;20496;-57
2023/10/15 13:53:45;;;;;;;3.83;1.17;;;18.00;74.10;;;;;;10492572;28;20036;-57
2023/10/15 13:58:46;;;;;;;6.55;1.33;;;17.90;74.00;;;;;;10492001;28;20027;-58
2023/10/15 14:03:48;;;;;;;4.82;1.95;;;18.00;74.00;;;;;;10465426;28;20498;-57
2023/10/15 14:08:50;;;;;;;6.55;1.70;;;18.00;74.00;;;;;;10491005;28;20028;-57
2023/10/15 14:13:51;;;;;;;8.30;2.25;;;18.00;73.80;;;;;;10492100;28;20074;-58
2023/10/15 14:18:51;;;;;;;4.72;1.35;;;17.90;73.90;;;;;;10490961;28;20048;-57
2023/10/15 14:23:52;;;;;;;3.83;1.35;;;17.90;73.80;;;;;;10491759;28;20029;-58
2023/10/15 14:28:53;;;;;;;5.05;1.52;;;17.90;73.80;;;;;;10491179;28;20024;-57
2023/10/15 14:33:53;;;;;;;4.07;1.35;;;17.90;73.80;;;;;;10490954;28;20047;-57
2023/10/15 14:38:54;;;;;;;13.23;2.20;;;17.90;73.70;;;;;;10490805;28;20036;-58
2023/10/15 14:43:55;;;;;;;12.52;2.53;;;18.00;73.70;;;;;;10491300;28;20033;-57
2023/10/15 14:48:56;;;;;;;11.57;2.30;;;18.00;73.30;;;;;;10490909;28;20029;-57
2023/10/15 14:53:56;;;;;;;17.23;2.90;;;18.10;73.30;;;;;;10491441;28;20024;-57
2023/10/15 14:58:59;;;;;;;18.42;4.25;;;18.20;72.90;;;;;;10480121;28;20032;-57
2023/10/15 15:03:59;;;;;;;15.00;2.38;;;18.10;73.40;;;;;;10491257;28;20480;-57
2023/10/15 15:09:00;;;;;;;17.13;2.78;;;17.90;73.40;;;;;;10490494;28;20029;-57
2023/10/15 15:14:03;;;;;;;23.10;4.75;;;17.90;73.50;;;;;;10490927;28;20025;-58
2023/10/15 15:19:05;;;;;;;14.25;3.78;;;18.00;73.70;;;;;;10490438;28;20071;-57
2023/10/15 15:24:06;;;;;;;15.82;5.93;;;18.00;73.70;;;;;;10490948;28;20119;-57
2023/10/15 15:58:15;;;;;;;17.45;4.93;;;18.40;76.60;;;;;;10654708;27;20352;-57
2023/10/15 16:03:15;;;;;;;15.18;4.10;;;18.40;77.50;;;;;;10610061;28;20020;-58
2023/10/15 16:08:16;;;;;;;12.13;4.45;;;18.30;78.30;;;;;;10603814;28;20082;-57
2023/10/15 16:13:17;;;;;;;12.77;4.20;;;18.30;78.80;;;;;;10547512;28;20058;-57
2023/10/15 16:18:19;;;;;;;20.98;4.10;;;18.50;77.40;;;;;;10568355;28;20035;-57
2023/10/15 16:23:20;;;;;;;13.98;3.08;;;18.80;78.60;;;;;;10568094;28;20103;-58
2023/10/15 16:28:21;;;;;;;13.82;4.07;;;18.70;78.10;;;;;;10541218;28;20474;-57
2023/10/15 16:33:22;;;;;;;15.90;4.22;;;18.60;78.90;;;;;;10552617;28;20036;-58
2023/10/15 16:38:24;;;;;;;16.63;3.97;;;18.60;78.20;;;;;;10567786;28;20065;-57
2023/10/15 16:43:24;;;;;;;11.68;3.55;;;18.60;78.00;;;;;;10567558;28;20416;-56
2023/10/15 16:48:25;;;;;;;14.90;4.07;;;18.60;77.80;;;;;;10567451;28;20024;-57
2023/10/15 16:53:26;;;;;;;13.43;3.60;;;18.60;77.80;;;;;;10567617;28;20032;-58
2023/10/15 16:58:27;;;;;;;16.63;3.55;;;18.40;77.60;;;;;;10583125;28;20035;-58
2023/10/15 17:03:28;;;;;;;7.82;2.63;;;18.30;77.80;;;;;;10548876;28;20077;-57
2023/10/15 17:08:29;;;;;;;8.95;3.50;;;18.20;77.60;;;;;;10544780;28;20503;-58
2023/10/15 17:13:30;;;;;;;9.65;3.70;;;18.10;77.60;;;;;;10538325;28;20028;-57
2023/10/15 17:18:31;;;;;;;14.55;4.25;;;18.10;77.40;;;;;;10536148;28;20028;-57
2023/10/15 17:23:32;;;;;;;8.77;3.17;;;18.10;77.20;;;;;;10537383;28;20039;-57
2023/10/15 17:28:32;;;;;;;12.77;4.05;;;18.10;77.10;;;;;;10541370;28;20024;-57
2023/10/15 17:33:33;;;;;;;7.70;2.63;;;18.10;77.20;;;;;;10537419;28;20062;-57
2023/10/15 17:38:34;;;;;;;11.70;2.40;;;18.10;77.20;;;;;;10537791;28;20024;-57
2023/10/15 17:43:35;;;;;;;13.27;3.75;;;18.00;77.10;;;;;;10537500;28;20031;-57
2023/10/15 17:48:36;;;;;;;10.10;2.63;;;18.00;77.10;;;;;;10511613;28;20039;-57
2023/10/15 17:53:36;;;;;;;10.68;3.70;;;17.90;77.00;;;;;;10494787;28;20051;-58
2023/10/15 17:58:37;;;;;;;13.52;3.65;;;17.90;76.90;;;;;;10524648;28;20084;-56
2023/10/15 18:03:38;;;;;;;7.15;2.85;;;18.00;76.60;;;;;;10534712;28;20046;-58
2023/10/15 18:08:40;;;;;;;13.90;3.67;;;18.00;76.30;;;;;;10515435;28;20034;-57
2023/10/15 18:13:41;;;;;;;8.77;2.70;;;18.00;76.60;;;;;;10530235;28;20027;-57
2023/10/15 18:18:41;;;;;;;6.28;2.55;;;17.90;77.20;;;;;;10522255;28;20024;-57
2023/10/15 18:23:42;;;;;;;11.25;2.40;;;18.00;76.40;;;;;;10513139;28;20382;-58
2023/10/15 18:28:43;;;;;;;10.98;3.13;;;18.00;76.30;;;;;;10519987;28;20417;-58
2023/10/15 18:33:44;;;;;;;8.57;2.33;;;17.90;76.90;;;;;;10516720;28;20028;-57
2023/10/15 18:38:44;;;;;;;9.93;3.08;;;17.90;77.10;;;;;;10524150;28;20451;-57
2023/10/15 18:43:45;;;;;;;5.95;2.40;;;17.90;77.10;;;;;;10532529;28;20028;-57
2023/10/15 18:48:46;;;;;;;10.38;3.15;;;17.80;77.00;;;;;;10534274;28;20658;-57
2023/10/15 18:53:46;;;;;;;7.05;2.47;;;17.80;77.00;;;;;;10533866;28;20111;-57
2023/10/15 18:58:48;;;;;;;8.73;2.83;;;17.80;77.10;;;;;;10534054;28;20111;-57
2023/10/15 19:03:49;;;;;;;8.20;2.78;;;17.80;76.90;;;;;;10528159;28;20470;-58
2023/10/15 19:08:49;;;;;;;9.30;3.60;;;17.80;76.90;;;;;;10520506;28;20042;-57
2023/10/15 19:13:51;;;;;;;8.15;2.45;;;17.80;76.90;;;;;;10548832;28;20063;-57
2023/10/15 19:18:51;;;;;;;6.63;2.72;;;17.80;76.90;;;;;;10549038;28;20073;-58
2023/10/15 19:23:52;;;;;;;6.10;2.10;;;17.80;76.90;;;;;;10514854;28;20081;-58
2023/10/15 19:28:53;;;;;;;14.43;2.53;;;17.80;76.80;;;;;;10521430;28;20027;-58
2023/10/15 19:33:54;;;;;;;6.57;2.20;;;17.80;76.90;;;;;;10516696;28;20514;-57
2023/10/15 19:38:54;;;;;;;7.03;2.10;;;17.80;76.90;;;;;;10547062;28;20367;-57
2023/10/15 19:43:55;;;;;;;5.03;2.50;;;17.70;76.50;;;;;;10518959;28;20056;-57
2023/10/15 19:48:56;;;;;;;4.00;2.33;;;17.70;76.40;;;;;;10527916;28;20113;-57
2023/10/15 19:53:57;;;;;;;5.18;1.88;;;17.70;76.00;;;;;;10547380;28;20058;-57
2023/10/15 19:58:59;;;;;;;6.28;2.40;;;17.70;76.00;;;;;;10530949;28;20038;-57
2023/10/15 20:04:05;;;;;;;5.25;2.50;;;17.60;75.90;;;;;;10551883;28;20132;-57
2023/10/15 20:09:12;;;;;;;4.05;1.60;;;17.70;75.90;;;;;;10522567;28;20670;-57
2023/10/15 20:14:12;;;;;;;6.40;2.17;;;17.60;75.90;;;;;;10490268;28;20052;-58
2023/10/15 20:19:13;;;;;;;3.60;1.88;;;17.60;75.90;;;;;;10490776;28;20383;-58
2023/10/15 20:24:14;;;;;;;4.10;2.00;;;17.60;75.80;;;;;;10490280;28;20025;-57
2023/10/15 20:29:14;;;;;;;3.83;1.80;;;17.60;75.70;;;;;;10509362;28;20020;-57
2023/10/15 20:34:15;;;;;;;4.28;2.47;;;17.50;75.70;;;;;;10503414;28;20024;-57
2023/10/15 20:39:18;;;;;;;3.53;1.52;;;17.50;75.60;;;;;;10514294;28;20020;-57
2023/10/15 20:44:19;;;;;;;4.88;2.38;;;17.50;75.60;;;;;;10538432;28;20032;-57
2023/10/15 20:49:20;;;;;;;3.95;1.85;;;17.50;75.60;;;;;;10521710;28;20032;-57
2023/10/15 20:54:21;;;;;;;3.83;1.90;;;17.50;75.60;;;;;;10538940;28;20063;-57
2023/10/15 20:59:22;;;;;;;4.05;1.75;;;17.50;75.50;;;;;;10539281;28;20023;-57
2023/10/15 21:04:25;;;;;;;4.07;2.40;;;17.50;75.40;;;;;;10538757;28;20036;-57
2023/10/15 21:09:26;;;;;;;3.65;1.58;;;17.40;75.30;;;;;;10554544;28;20135;-57
2023/10/15 21:14:26;;;;;;;3.28;1.67;;;17.50;75.20;;;;;;10538468;28;20110;-56
2023/10/15 21:19:27;;;;;;;4.75;2.83;;;17.50;75.10;;;;;;10538473;28;20498;-58
2023/10/15 21:24:28;;;;;;;2.78;1.70;;;17.40;75.10;;;;;;10538087;28;20532;-58
2023/10/15 21:29:29;;;;;;;2.30;1.75;;;17.40;75.10;;;;;;10548635;28;20096;-57
2023/10/15 21:34:30;;;;;;;3.22;1.50;;;17.40;75.10;;;;;;10537811;28;20582;-58
2023/10/15 21:39:30;;;;;;;3.22;2.20;;;17.40;75.00;;;;;;10537741;28;20034;-58
2023/10/15 21:44:31;;;;;;;2.92;1.55;;;17.40;74.90;;;;;;10537126;28;20035;-57
2023/10/15 21:49:32;;;;;;;4.45;1.83;;;17.40;75.10;;;;;;10537617;28;20368;-57
2023/10/15 21:54:33;;;;;;;3.97;1.73;;;17.40;75.00;;;;;;10536702;28;20048;-58
2023/10/15 21:59:34;;;;;;;2.80;1.40;;;17.40;75.10;;;;;;10518755;28;20024;-56
2023/10/15 22:04:37;;;;;;;3.13;1.70;;;17.40;75.00;;;;;;10536405;28;20032;-57
2023/10/15 22:09:37;;;;;;;2.90;1.60;;;17.30;74.90;;;;;;10536838;28;20478;-57
2023/10/15 22:14:45;;;;;;;2.47;1.67;;;17.30;74.90;;;;;;10517935;28;20038;-57
2023/10/15 22:19:45;;;;;;;3.97;2.15;;;17.30;74.90;;;;;;10536379;28;20032;-58
2023/10/15 22:24:47;;;;;;;3.53;1.60;;;17.30;74.90;;;;;;10535732;28;20467;-57
2023/10/15 22:29:51;;;;;;;2.47;1.50;;;17.30;74.90;;;;;;10546678;28;20031;-57
2023/10/15 22:34:52;;;;;;;2.38;1.40;;;17.30;74.90;;;;;;10535255;28;20028;-58
2023/10/15 22:39:52;;;;;;;3.95;2.50;;;17.30;74.90;;;;;;10535441;28;20026;-57
2023/10/15 22:44:53;;;;;;;3.55;1.30;;;17.30;74.80;;;;;;10534986;28;20036;-57
2023/10/15 22:49:54;;;;;;;5.38;2.13;;;17.30;74.70;;;;;;10535201;28;20482;-57
2023/10/15 22:54:55;;;;;;;2.97;1.40;;;17.30;74.70;;;;;;10516256;28;20040;-57
2023/10/15 22:59:55;;;;;;;2.83;1.48;;;17.30;74.60;;;;;;10534496;28;20032;-57
2023/10/15 23:04:56;;;;;;;2.42;1.60;;;17.20;74.60;;;;;;10515540;28;20030;-58
2023/10/15 23:09:57;;;;;;;3.20;2.08;;;17.20;74.50;;;;;;10534240;28;20073;-57
2023/10/15 23:14:57;;;;;;;3.50;1.70;;;17.20;74.60;;;;;;10515528;28;20024;-57
2023/10/15 23:19:59;;;;;;;3.03;1.73;;;17.20;74.60;;;;;;10515958;28;20043;-57
2023/10/15 23:25:00;;;;;;;2.65;1.50;;;17.20;74.50;;;;;;10533344;28;20035;-58
2023/10/15 23:30:01;;;;;;;2.50;1.58;;;17.20;74.50;;;;;;10543051;28;20034;-57
2023/10/15 23:35:01;;;;;;;3.13;1.48;;;17.20;74.40;;;;;;10532991;28;20032;-57
2023/10/15 23:40:12;;;;;;;3.50;2.05;;;17.20;74.40;;;;;;10533395;28;20024;-57
2023/10/15 23:45:13;;;;;;;4.25;1.92;;;17.20;74.40;;;;;;10532379;28;20040;-58
2023/10/15 23:50:15;;;;;;;3.33;1.83;;;17.20;74.40;;;;;;10532940;28;20039;-58
2023/10/15 23:55:16;;;;;;;2.90;1.42;;;17.20;74.30;;;;;;10532739;28;20348;-57
